createdAt,value
2018-05-25T00:00:53.707Z,20.21
2018-05-25T00:03:22.482Z,20.22
2018-05-25T00:05:51.234Z,20.47
2018-05-25T00:08:19.990Z,20.45
2018-05-25T00:10:48.755Z,20.57
2018-05-25T00:13:17.513Z,20.85
2018-05-25T00:15:46.677Z,20.91
2018-05-25T00:18:16.205Z,21.10
2018-05-25T00:20:44.949Z,21.03
2018-05-25T00:23:13.711Z,21.07
2018-05-25T00:25:42.456Z,20.94
2018-05-25T00:28:11.629Z,20.68
2018-05-25T00:30:40.464Z,20.56
2018-05-25T00:36:13.396Z,20.85
2018-05-25T00:38:42.171Z,20.95
2018-05-25T00:41:12.008Z,20.88
2018-05-25T00:43:40.801Z,20.92
2018-05-25T00:46:09.669Z,20.80
2018-05-25T00:48:39.277Z,20.51
2018-05-25T00:51:08.013Z,20.59
2018-05-25T00:53:36.733Z,20.55
2018-05-25T00:56:05.541Z,20.72
2018-05-25T00:58:34.331Z,20.71
2018-05-25T01:01:03.115Z,20.19
2018-05-25T01:03:31.883Z,19.93
2018-05-25T01:06:00.691Z,19.74
2018-05-25T01:08:29.482Z,19.83
2018-05-25T01:10:58.216Z,19.81
2018-05-25T01:13:27.039Z,20.21
2018-05-25T01:15:55.788Z,20.11
2018-05-25T01:18:25.317Z,19.89
2018-05-25T01:20:54.882Z,19.83
2018-05-25T01:23:23.645Z,20.15
2018-05-25T01:25:52.393Z,20.27
2018-05-25T01:28:21.944Z,20.29
2018-05-25T01:30:50.721Z,20.28
2018-05-25T01:33:19.996Z,20.17
2018-05-25T01:35:48.803Z,20.00
2018-05-25T01:38:17.608Z,19.94
2018-05-25T01:40:46.390Z,20.06
2018-05-25T01:43:15.168Z,20.25
2018-05-25T01:45:43.933Z,20.29
2018-05-25T01:48:12.670Z,20.22
2018-05-25T01:50:41.485Z,20.31
2018-05-25T01:53:10.231Z,20.45
2018-05-25T01:55:39.832Z,20.39
2018-05-25T01:58:08.583Z,20.40
2018-05-25T02:00:37.324Z,20.42
2018-05-25T02:03:06.088Z,20.39
2018-05-25T02:05:34.880Z,20.26
2018-05-25T02:08:03.617Z,20.37
2018-05-25T02:10:32.386Z,20.38
2018-05-25T02:13:01.222Z,20.43
2018-05-25T02:15:29.989Z,20.52
2018-05-25T02:17:59.563Z,20.51
2018-05-25T02:20:28.325Z,20.52
2018-05-25T02:22:57.079Z,20.43
2018-05-25T02:25:25.830Z,20.45
2018-05-25T02:27:54.597Z,20.36
2018-05-25T02:30:23.335Z,20.11
2018-05-25T02:32:52.100Z,20.03
2018-05-25T02:35:20.909Z,19.89
2018-05-25T02:37:49.660Z,20.11
2018-05-25T02:40:18.453Z,20.07
2018-05-25T02:42:48.021Z,19.49
2018-05-25T02:45:16.752Z,19.54
2018-05-25T02:47:46.059Z,19.45
2018-05-25T02:50:14.840Z,19.54
2018-05-25T02:52:43.642Z,19.28
2018-05-25T02:55:12.445Z,19.55
2018-05-25T02:57:41.269Z,19.80
2018-05-25T03:00:10.139Z,19.40
2018-05-25T03:02:38.898Z,19.07
2018-05-25T03:05:07.702Z,19.16
2018-05-25T03:07:36.454Z,18.87
2018-05-25T03:10:05.239Z,19.21
2018-05-25T03:12:35.043Z,19.45
2018-05-25T03:15:03.889Z,19.68
2018-05-25T03:17:33.606Z,19.71
2018-05-25T03:20:02.430Z,19.69
2018-05-25T03:22:31.173Z,19.60
2018-05-25T03:25:00.542Z,19.59
2018-05-25T03:27:31.150Z,19.32
2018-05-25T03:30:00.569Z,19.21
2018-05-25T03:32:31.179Z,19.62
2018-05-25T03:35:00.711Z,19.30
2018-05-25T03:37:31.334Z,19.46
2018-05-25T03:40:00.638Z,19.54
2018-05-25T03:42:31.225Z,19.57
2018-05-25T03:45:00.708Z,19.50
2018-05-25T03:47:33.654Z,19.93
2018-05-25T03:50:03.630Z,19.97
2018-05-25T03:52:32.369Z,19.76
2018-05-25T03:55:01.143Z,19.68
2018-05-25T03:57:31.021Z,20.04
2018-05-25T04:00:12.754Z,20.19
2018-05-25T04:02:41.525Z,20.31
2018-05-25T04:05:11.308Z,20.67
2018-05-25T04:07:40.747Z,20.78
2018-05-25T04:10:09.862Z,20.77
2018-05-25T04:12:38.594Z,20.93
2018-05-25T04:15:07.364Z,21.06
2018-05-25T04:17:37.598Z,21.17
2018-05-25T04:20:07.971Z,21.04
2018-05-25T04:22:38.227Z,20.96
2018-05-25T04:25:07.410Z,21.01
2018-05-25T04:27:36.910Z,21.10
2018-05-25T04:30:06.469Z,21.21
2018-05-25T04:32:35.225Z,21.12
2018-05-25T04:35:03.996Z,21.38
2018-05-25T04:37:33.530Z,21.25
2018-05-25T04:40:02.297Z,21.38
2018-05-25T04:42:31.149Z,21.47
2018-05-25T04:45:00.332Z,21.51
2018-05-25T04:47:29.133Z,21.54
2018-05-25T04:49:57.973Z,21.55
2018-05-25T04:52:26.805Z,21.48
2018-05-25T04:54:55.612Z,21.51
2018-05-25T04:57:24.371Z,21.44
2018-05-25T04:59:53.349Z,21.42
2018-05-25T05:02:22.198Z,21.50
2018-05-25T05:04:51.008Z,21.42
2018-05-25T05:07:19.762Z,21.65
2018-05-25T05:09:48.539Z,21.70
2018-05-25T05:12:17.296Z,21.66
2018-05-25T05:14:46.139Z,21.62
2018-05-25T05:17:14.932Z,21.52
2018-05-25T05:19:43.681Z,21.42
2018-05-25T05:22:13.621Z,21.33
2018-05-25T05:24:43.132Z,21.22
2018-05-25T05:27:11.931Z,21.07
2018-05-25T05:29:40.714Z,21.27
2018-05-25T05:32:09.457Z,21.24
2018-05-25T05:34:38.246Z,21.23
2018-05-25T05:37:07.009Z,21.73
2018-05-25T05:39:35.893Z,21.70
2018-05-25T05:42:04.653Z,21.59
2018-05-25T05:44:33.427Z,21.58
2018-05-25T05:47:02.185Z,21.38
2018-05-25T05:49:31.761Z,21.40
2018-05-25T05:52:00.519Z,21.53
2018-05-25T05:54:29.332Z,21.72
2018-05-25T05:56:58.081Z,21.99
2018-05-25T05:59:26.888Z,21.92
2018-05-25T06:01:55.703Z,22.05
2018-05-25T06:04:24.484Z,22.32
2018-05-25T06:06:53.243Z,22.86
2018-05-25T06:09:22.089Z,22.69
2018-05-25T06:11:50.847Z,22.63
2018-05-25T06:14:19.636Z,22.32
2018-05-25T06:16:48.453Z,22.46
2018-05-25T06:19:17.185Z,22.58
2018-05-25T06:21:46.117Z,22.73
2018-05-25T06:24:14.949Z,22.82
2018-05-25T06:26:43.690Z,22.95
2018-05-25T06:29:12.668Z,23.03
2018-05-25T06:31:41.550Z,23.29
2018-05-25T06:34:10.304Z,23.50
2018-05-25T06:36:39.031Z,23.43
2018-05-25T06:39:07.814Z,23.38
2018-05-25T06:41:36.603Z,23.47
2018-05-25T06:44:05.368Z,23.63
2018-05-25T06:46:34.176Z,23.85
2018-05-25T06:49:02.971Z,23.80
2018-05-25T06:51:32.253Z,23.76
2018-05-25T06:54:01.113Z,23.64
2018-05-25T06:56:29.866Z,23.54
2018-05-25T06:58:58.642Z,23.48
2018-05-25T07:01:27.426Z,23.65
2018-05-25T07:03:56.241Z,23.60
2018-05-25T07:06:24.999Z,23.47
2018-05-25T07:08:53.778Z,23.52
2018-05-25T07:11:22.526Z,24.22
2018-05-25T07:13:51.333Z,24.61
2018-05-25T07:16:20.142Z,24.78
2018-05-25T07:18:48.957Z,25.01
2018-05-25T07:21:17.743Z,24.63
2018-05-25T07:23:46.511Z,24.59
2018-05-25T07:26:15.313Z,24.55
2018-05-25T07:28:44.067Z,24.52
2018-05-25T07:31:12.827Z,24.94
2018-05-25T07:33:41.705Z,25.52
2018-05-25T07:36:10.557Z,26.06
2018-05-25T07:38:39.344Z,26.65
2018-05-25T07:41:08.117Z,26.50
2018-05-25T07:43:36.901Z,25.89
2018-05-25T07:46:05.661Z,26.12
2018-05-25T07:48:35.292Z,26.24
2018-05-25T07:51:04.168Z,25.89
2018-05-25T07:53:33.037Z,26.24
2018-05-25T07:56:02.931Z,26.46
2018-05-25T07:58:31.674Z,26.53
2018-05-25T08:01:00.479Z,26.76
2018-05-25T08:03:29.331Z,26.86
2018-05-25T08:05:58.077Z,26.77
2018-05-25T08:08:26.866Z,26.34
2018-05-25T08:10:55.687Z,26.56
2018-05-25T08:13:24.437Z,26.64
2018-05-25T08:15:53.190Z,26.75
2018-05-25T08:18:21.938Z,26.59
2018-05-25T08:20:51.102Z,26.64
2018-05-25T08:23:19.860Z,25.97
2018-05-25T08:25:48.646Z,25.92
2018-05-25T08:28:17.383Z,26.45
2018-05-25T08:30:46.181Z,26.94
2018-05-25T08:33:14.923Z,27.12
2018-05-25T08:35:43.679Z,26.64
2018-05-25T08:38:12.447Z,26.52
2018-05-25T08:40:42.401Z,27.26
2018-05-25T08:43:11.137Z,27.45
2018-05-25T08:45:39.928Z,27.80
2018-05-25T08:48:08.741Z,26.91
2018-05-25T08:50:37.504Z,26.34
2018-05-25T08:53:06.309Z,26.63
2018-05-25T08:55:35.217Z,27.46
2018-05-25T08:58:03.989Z,27.27
2018-05-25T09:00:34.550Z,26.49
2018-05-25T09:03:03.588Z,26.72
2018-05-25T09:05:32.384Z,27.51
2018-05-25T09:08:01.177Z,28.40
2018-05-25T09:10:30.340Z,28.31
2018-05-25T09:12:59.362Z,28.53
2018-05-25T09:15:28.202Z,28.85
2018-05-25T09:17:56.981Z,29.15
2018-05-25T09:20:25.815Z,29.13
2018-05-25T09:22:54.601Z,28.70
2018-05-25T09:25:23.403Z,28.55
2018-05-25T09:27:52.177Z,28.11
2018-05-25T09:30:20.901Z,27.91
2018-05-25T09:32:49.685Z,27.40
2018-05-25T09:35:18.470Z,27.84
2018-05-25T09:37:47.262Z,27.69
2018-05-25T09:40:16.049Z,27.75
2018-05-25T09:42:45.738Z,28.05
2018-05-25T09:45:14.687Z,27.86
2018-05-25T09:47:43.442Z,28.32
2018-05-25T09:50:12.217Z,28.46
2018-05-25T09:52:40.995Z,27.84
2018-05-25T09:55:10.510Z,27.74
2018-05-25T09:57:39.481Z,27.46
2018-05-25T10:00:08.299Z,26.21
2018-05-25T10:02:37.075Z,25.29
2018-05-25T10:05:05.828Z,25.00
2018-05-25T10:07:34.632Z,24.66
2018-05-25T10:10:04.151Z,23.86
2018-05-25T10:12:32.924Z,23.58
2018-05-25T10:15:01.746Z,23.01
2018-05-25T10:17:30.501Z,22.46
2018-05-25T10:19:59.360Z,22.74
2018-05-25T10:22:28.116Z,23.02
2018-05-25T10:24:57.642Z,22.85
2018-05-25T10:27:26.409Z,22.80
2018-05-25T10:29:55.364Z,22.75
2018-05-25T10:32:24.241Z,23.30
2018-05-25T10:34:52.985Z,23.58
2018-05-25T10:37:21.807Z,23.69
2018-05-25T10:39:50.629Z,24.71
2018-05-25T10:42:19.408Z,24.90
2018-05-25T10:44:48.165Z,25.41
2018-05-25T10:47:16.943Z,24.95
2018-05-25T10:49:45.711Z,25.23
2018-05-25T10:52:14.535Z,25.25
2018-05-25T10:54:43.340Z,25.14
2018-05-25T10:57:12.106Z,24.72
2018-05-25T10:59:40.861Z,24.16
2018-05-25T11:02:09.641Z,23.80
2018-05-25T11:04:38.808Z,23.72
2018-05-25T11:07:07.635Z,23.75
2018-05-25T11:09:36.420Z,23.61
2018-05-25T11:12:05.213Z,23.79
2018-05-25T11:14:35.955Z,23.71
2018-05-25T11:17:04.760Z,23.75
2018-05-25T11:19:35.350Z,23.31
2018-05-25T11:22:04.831Z,22.74
2018-05-25T11:24:34.706Z,22.49
2018-05-25T11:27:06.505Z,22.82
2018-05-25T11:29:35.252Z,23.52
2018-05-25T11:32:04.923Z,23.56
2018-05-25T11:34:35.525Z,23.92
2018-05-25T11:37:04.914Z,23.86
2018-05-25T11:39:33.737Z,23.53
2018-05-25T11:42:02.538Z,23.68
2018-05-25T11:44:31.328Z,23.15
2018-05-25T11:47:00.102Z,23.15
2018-05-25T11:49:28.914Z,23.64
2018-05-25T11:51:57.671Z,24.08
2018-05-25T11:54:26.458Z,24.26
2018-05-25T11:56:55.290Z,24.76
2018-05-25T11:59:24.119Z,24.84
2018-05-25T12:01:52.935Z,24.58
2018-05-25T12:04:21.825Z,25.45
2018-05-25T12:06:50.585Z,25.92
2018-05-25T12:09:19.353Z,26.10
2018-05-25T12:11:48.119Z,26.05
2018-05-25T12:14:16.878Z,25.76
2018-05-25T12:16:45.623Z,25.51
2018-05-25T12:19:14.474Z,24.87
2018-05-25T12:21:43.291Z,25.13
2018-05-25T12:24:12.054Z,25.16
2018-05-25T12:26:40.833Z,24.62
2018-05-25T12:29:09.593Z,24.54
2018-05-25T12:31:38.385Z,24.55
2018-05-25T12:34:07.204Z,24.06
2018-05-25T12:36:35.910Z,24.01
2018-05-25T12:39:05.457Z,24.22
2018-05-25T12:41:35.304Z,24.23
2018-05-25T12:44:04.079Z,24.04
2018-05-25T12:46:32.854Z,23.58
2018-05-25T12:49:01.642Z,23.48
2018-05-25T12:51:30.414Z,23.61
2018-05-25T12:53:59.164Z,23.62
2018-05-25T12:56:28.163Z,23.29
2018-05-25T12:58:56.941Z,23.50
2018-05-25T13:01:25.726Z,23.52
2018-05-25T13:03:54.555Z,23.67
2018-05-25T13:06:23.302Z,23.77
2018-05-25T13:08:52.075Z,23.82
2018-05-25T13:11:20.861Z,23.78
2018-05-25T13:13:49.675Z,23.63
2018-05-25T13:16:18.444Z,24.15
2018-05-25T13:18:47.232Z,24.20
2018-05-25T13:21:16.049Z,24.03
2018-05-25T13:23:45.048Z,24.09
2018-05-25T13:26:13.801Z,23.70
2018-05-25T13:28:42.565Z,23.51
2018-05-25T13:31:11.376Z,23.60
2018-05-25T13:33:40.163Z,23.57
2018-05-25T13:36:08.961Z,23.77
2018-05-25T13:38:37.692Z,23.99
2018-05-25T13:41:06.463Z,24.16
2018-05-25T13:43:35.966Z,24.02
2018-05-25T13:46:04.719Z,23.95
2018-05-25T13:48:34.321Z,23.92
2018-05-25T13:51:03.510Z,24.04
2018-05-25T13:53:32.245Z,23.87
2018-05-25T13:56:01.018Z,24.13
2018-05-25T13:58:29.848Z,23.85
2018-05-25T14:00:58.579Z,24.01
2018-05-25T14:03:27.306Z,23.91
2018-05-25T14:05:56.094Z,24.00
2018-05-25T14:08:25.425Z,24.16
2018-05-25T14:10:54.233Z,24.32
2018-05-25T14:13:23.017Z,24.17
2018-05-25T14:15:52.639Z,23.84
2018-05-25T14:18:21.385Z,23.88
2018-05-25T14:20:50.140Z,23.98
2018-05-25T14:23:18.905Z,23.81
2018-05-25T14:25:47.680Z,23.72
2018-05-25T14:28:16.405Z,23.80
2018-05-25T14:30:45.170Z,24.31
2018-05-25T14:33:14.106Z,24.13
2018-05-25T14:35:42.848Z,24.39
2018-05-25T14:38:11.627Z,24.38
2018-05-25T14:40:40.403Z,24.11
2018-05-25T14:43:09.136Z,24.13
2018-05-25T14:45:37.891Z,23.98
2018-05-25T14:48:06.665Z,24.27
2018-05-25T14:50:37.258Z,24.10
2018-05-25T14:53:06.686Z,23.95
2018-05-25T14:55:37.293Z,23.94
2018-05-25T14:58:06.747Z,24.07
2018-05-25T15:00:36.694Z,24.30
2018-05-25T15:03:06.581Z,24.14
2018-05-25T15:05:35.435Z,24.20
2018-05-25T15:08:04.209Z,24.24
2018-05-25T15:10:32.971Z,24.32
2018-05-25T15:13:01.733Z,24.58
2018-05-25T15:15:30.511Z,25.09
2018-05-25T15:17:59.355Z,25.42
2018-05-25T15:20:28.134Z,25.60
2018-05-25T15:22:56.946Z,26.06
2018-05-25T15:25:25.712Z,26.33
2018-05-25T15:27:54.514Z,26.72
2018-05-25T15:30:23.315Z,26.45
2018-05-25T15:32:52.167Z,26.28
2018-05-25T15:35:20.974Z,26.38
2018-05-25T15:37:49.717Z,25.85
2018-05-25T15:40:18.531Z,25.68
2018-05-25T15:42:47.357Z,25.51
2018-05-25T15:45:16.152Z,25.24
2018-05-25T15:47:44.936Z,25.49
2018-05-25T15:50:13.696Z,25.22
2018-05-25T15:52:42.483Z,24.18
2018-05-25T15:55:11.296Z,24.19
2018-05-25T15:57:40.076Z,24.49
2018-05-25T16:00:08.845Z,24.41
2018-05-25T16:02:37.646Z,24.20
2018-05-25T16:05:07.187Z,24.13
2018-05-25T16:07:37.859Z,24.00
2018-05-25T16:10:07.923Z,24.02
2018-05-25T16:12:37.247Z,24.24
2018-05-25T16:15:07.053Z,24.40
2018-05-25T16:17:35.819Z,24.34
2018-05-25T16:20:04.639Z,24.45
2018-05-25T16:22:33.417Z,24.35
2018-05-25T16:25:02.161Z,24.41
2018-05-25T16:27:30.998Z,24.73
2018-05-25T16:29:59.805Z,25.13
2018-05-25T16:32:28.557Z,24.91
2018-05-25T16:34:57.342Z,24.82
2018-05-25T16:37:26.137Z,24.79
2018-05-25T16:39:54.906Z,24.69
2018-05-25T16:42:23.721Z,24.70
2018-05-25T16:44:52.490Z,25.06
2018-05-25T16:47:21.277Z,24.88
2018-05-25T16:49:50.059Z,25.07
2018-05-25T16:52:18.834Z,25.45
2018-05-25T16:54:47.651Z,25.60
2018-05-25T16:57:16.480Z,25.70
2018-05-25T16:59:45.265Z,25.44
2018-05-25T17:02:14.115Z,25.18
2018-05-25T17:04:42.892Z,24.99
2018-05-25T17:07:11.896Z,24.82
2018-05-25T17:09:40.641Z,24.44
2018-05-25T17:12:09.451Z,24.24
2018-05-25T17:14:39.084Z,24.27
2018-05-25T17:17:07.873Z,24.31
2018-05-25T17:19:45.216Z,24.26
2018-05-25T17:22:22.910Z,24.08
2018-05-25T17:24:57.608Z,23.95
2018-05-25T17:27:32.475Z,23.97
2018-05-25T17:30:06.029Z,23.95
2018-05-25T17:32:37.673Z,24.05
2018-05-25T17:35:09.412Z,24.02
2018-05-25T17:37:45.245Z,24.11
2018-05-25T17:40:19.793Z,24.06
2018-05-25T17:42:50.408Z,23.97
2018-05-25T17:45:26.964Z,23.84
2018-05-25T17:47:57.529Z,23.76
2018-05-25T17:50:32.482Z,23.68
2018-05-25T17:53:04.614Z,23.60
2018-05-25T17:55:39.654Z,23.59
2018-05-25T17:58:14.077Z,23.58
2018-05-25T18:00:48.630Z,23.49
2018-05-25T18:03:23.357Z,23.20
2018-05-25T18:05:59.499Z,23.40
2018-05-25T18:08:35.675Z,23.30
2018-05-25T18:11:07.412Z,23.22
2018-05-25T18:13:38.260Z,23.16
2018-05-25T18:18:49.253Z,23.03
2018-05-25T18:21:22.884Z,23.10
2018-05-25T18:23:56.712Z,22.96
2018-05-25T18:26:30.281Z,22.66
2018-05-25T18:29:07.903Z,22.44
2018-05-25T18:31:43.765Z,22.49
2018-05-25T18:34:16.025Z,22.52
2018-05-25T18:36:48.184Z,22.57
2018-05-25T18:39:21.709Z,22.74
2018-05-25T18:41:53.656Z,22.64
2018-05-25T18:44:25.211Z,22.71
2018-05-25T18:46:59.447Z,22.74
2018-05-25T18:49:37.056Z,22.59
2018-05-25T18:52:09.156Z,22.51
2018-05-25T18:54:44.801Z,22.42
2018-05-25T18:57:21.478Z,22.27
2018-05-25T18:59:58.103Z,22.22
2018-05-25T19:02:31.968Z,22.32
2018-05-25T19:05:07.245Z,22.29
2018-05-25T19:07:43.280Z,22.22
2018-05-25T19:10:19.789Z,22.36
2018-05-25T19:12:51.115Z,22.20
2018-05-25T19:15:28.621Z,22.04
2018-05-25T19:18:02.886Z,21.88
2018-05-25T19:20:34.938Z,21.75
2018-05-25T19:23:08.233Z,21.76
2018-05-25T19:25:39.929Z,21.87
2018-05-25T19:28:13.678Z,21.83
2018-05-25T19:30:47.118Z,21.95
2018-05-25T19:33:24.378Z,21.92
2018-05-25T19:35:58.718Z,22.05
2018-05-25T19:41:09.525Z,21.83
2018-05-25T19:43:41.869Z,21.84
2018-05-25T19:46:13.672Z,21.79
2018-05-25T19:48:48.903Z,21.65
2018-05-25T19:51:24.286Z,21.44
2018-05-25T19:53:56.359Z,21.59
2018-05-25T19:56:30.536Z,21.62
2018-05-25T19:59:05.092Z,21.83
2018-05-25T20:01:41.664Z,21.77
2018-05-25T20:04:13.522Z,21.53
2018-05-25T20:06:44.036Z,21.47
2018-05-25T20:09:21.289Z,21.55
2018-05-25T20:11:55.355Z,21.42
2018-05-25T20:14:28.618Z,21.33
2018-05-25T20:17:01.443Z,21.51
2018-05-25T20:19:34.321Z,21.70
2018-05-25T20:22:06.294Z,21.52
2018-05-25T20:24:41.407Z,21.40
2018-05-25T20:27:13.132Z,21.01
2018-05-25T20:29:47.349Z,20.85
2018-05-25T20:32:21.342Z,20.91
2018-05-25T20:34:53.639Z,21.08
2018-05-25T20:37:31.151Z,21.10
2018-05-25T20:40:05.013Z,21.01
2018-05-25T20:42:42.756Z,20.94
2018-05-25T20:45:14.025Z,20.50
2018-05-25T20:47:45.331Z,20.51
2018-05-25T20:50:20.352Z,20.67
2018-05-25T20:52:56.412Z,20.57
2018-05-25T20:55:32.864Z,20.57
2018-05-25T21:00:50.473Z,20.40
2018-05-25T21:03:26.757Z,20.52
2018-05-25T21:06:00.497Z,20.64
2018-05-25T21:08:31.554Z,20.72
2018-05-25T21:11:06.139Z,20.60
2018-05-25T21:13:40.388Z,20.50
2018-05-25T21:16:15.928Z,20.23
2018-05-25T21:18:54.403Z,20.28
2018-05-25T21:21:31.122Z,20.41
2018-05-25T21:24:04.873Z,20.41
2018-05-25T21:26:38.022Z,20.48
2018-05-25T21:29:12.543Z,20.32
2018-05-25T21:31:44.138Z,19.96
2018-05-25T21:34:15.709Z,19.62
2018-05-25T21:36:49.711Z,19.82
2018-05-25T21:39:27.149Z,20.08
2018-05-25T21:42:03.043Z,20.13
2018-05-25T21:44:40.129Z,20.09
2018-05-25T21:47:11.758Z,20.09
2018-05-25T21:49:44.598Z,20.10
2018-05-25T21:52:16.534Z,20.10
2018-05-25T21:54:49.865Z,20.01
2018-05-25T21:57:27.747Z,20.20
2018-05-25T22:00:03.838Z,20.26
2018-05-25T22:02:36.369Z,20.15
2018-05-25T22:05:10.702Z,20.15
2018-05-25T22:07:42.399Z,20.09
2018-05-25T22:10:17.832Z,19.95
2018-05-25T22:12:51.242Z,19.85
2018-05-25T22:15:28.049Z,19.89
2018-05-25T22:17:58.683Z,19.98
2018-05-25T22:20:35.607Z,20.05
2018-05-25T22:23:12.359Z,19.85
2018-05-25T22:25:49.145Z,19.81
2018-05-25T22:28:22.197Z,19.70
2018-05-25T22:30:57.709Z,19.65
2018-05-25T22:33:30.527Z,19.46
2018-05-25T22:36:04.884Z,19.35
2018-05-25T22:38:41.040Z,19.29
2018-05-25T22:41:18.605Z,19.39
2018-05-25T22:44:02.239Z,19.55
2018-05-25T22:46:50.128Z,19.61
2018-05-25T22:49:40.699Z,19.57
2018-05-25T22:52:23.105Z,19.63
2018-05-25T22:54:58.480Z,19.81
2018-05-25T22:57:35.138Z,19.81
2018-05-25T23:00:06.448Z,19.70
2018-05-25T23:02:45.516Z,19.66
2018-05-25T23:05:18.298Z,19.60
2018-05-25T23:07:54.079Z,19.55
2018-05-25T23:10:29.734Z,19.36
2018-05-25T23:13:05.577Z,19.44
2018-05-25T23:15:39.444Z,19.60
2018-05-25T23:18:15.883Z,19.40
2018-05-25T23:20:52.569Z,19.27
2018-05-25T23:23:27.408Z,19.30
2018-05-25T23:26:00.958Z,19.32
2018-05-25T23:28:36.631Z,19.31
2018-05-25T23:31:10.892Z,19.25
2018-05-25T23:33:44.546Z,19.16
2018-05-25T23:36:19.296Z,19.26
2018-05-25T23:38:55.654Z,19.35
2018-05-25T23:41:32.253Z,19.34
2018-05-25T23:44:06.606Z,19.34
2018-05-25T23:46:41.265Z,19.33
2018-05-25T23:49:14.506Z,19.28
2018-05-25T23:51:47.616Z,19.30
2018-05-25T23:54:20.637Z,19.30
2018-05-25T23:56:56.876Z,19.18
2018-05-25T23:59:34.379Z,19.20
